sensor_id;sensor_type;location;lat;lon;timestamp;pressure;altitude;pressure_sealevel;temperature;humidity
14885;BME280;7534;50.762;7.000;2022-09-03T00:01:51;150304.06;;;15.82;58.71
14885;BME280;7534;50.762;7.000;2022-09-03T00:04:41;150281.72;;;15.74;59.14
14885;BME280;7534;50.762;7.000;2022-09-03T00:07:19;150280.41;;;15.73;58.82
14885;BME280;7534;50.762;7.000;2022-09-03T00:09:54;150272.56;;;15.70;58.86
14885;BME280;7534;50.762;7.000;2022-09-03T00:12:28;150264.66;;;15.67;59.23
14885;BME280;7534;50.762;7.000;2022-09-03T00:15:12;150260.69;;;15.65;59.35
14885;BME280;7534;50.762;7.000;2022-09-03T00:17:52;150235.75;;;15.56;59.26
14885;BME280;7534;50.762;7.000;2022-09-03T00:20:30;150256.78;;;15.64;59.75
14885;BME280;7534;50.762;7.000;2022-09-03T00:23:04;150237.09;;;15.56;59.90
14885;BME280;7534;50.762;7.000;2022-09-03T00:25:42;150239.66;;;15.57;59.79
14885;BME280;7534;50.762;7.000;2022-09-03T00:28:18;150231.81;;;15.54;60.09
14885;BME280;7534;50.762;7.000;2022-09-03T00:30:49;150226.50;;;15.52;60.20
14885;BME280;7534;50.762;7.000;2022-09-03T00:33:26;150222.53;;;15.51;60.06
14885;BME280;7534;50.762;7.000;2022-09-03T00:36:09;150231.81;;;15.54;60.01
14885;BME280;7534;50.762;7.000;2022-09-03T00:38:37;150210.75;;;15.46;60.64
14885;BME280;7534;50.762;7.000;2022-09-03T00:50:45;150191.03;;;15.39;60.45
14885;BME280;7534;50.762;7.000;2022-09-03T00:53:54;150183.13;;;15.36;60.08
14885;BME280;7534;50.762;7.000;2022-09-03T00:57:11;150158.16;;;15.26;60.07
14885;BME280;7534;50.762;7.000;2022-09-03T01:00:15;150179.16;;;15.34;60.64
14885;BME280;7534;50.762;7.000;2022-09-03T01:03:09;150191.03;;;15.39;60.67
14885;BME280;7534;50.762;7.000;2022-09-03T01:06:05;150152.94;;;15.24;60.66
14885;BME280;7534;50.762;7.000;2022-09-03T01:21:00;150155.50;;;15.25;60.09
14885;BME280;7534;50.762;7.000;2022-09-03T01:23:54;150160.78;;;15.27;60.09
14885;BME280;7534;50.762;7.000;2022-09-03T01:27:03;150147.66;;;15.22;60.32
14885;BME280;7534;50.762;7.000;2022-09-03T01:32:53;150152.94;;;15.24;60.21
14885;BME280;7534;50.762;7.000;2022-09-03T01:35:47;150172.63;;;15.32;60.71
14885;BME280;7534;50.762;7.000;2022-09-03T01:41:03;150185.75;;;15.37;61.08
14885;BME280;7534;50.762;7.000;2022-09-03T01:44:12;150172.63;;;15.32;61.00
14885;BME280;7534;50.762;7.000;2022-09-03T01:46:42;150145.03;;;15.21;61.48
14885;BME280;7534;50.762;7.000;2022-09-03T01:49:35;150126.63;;;15.14;62.25
14885;BME280;7534;50.762;7.000;2022-09-03T01:55:30;150092.44;;;15.01;63.17
14885;BME280;7534;50.762;7.000;2022-09-03T01:58:21;150092.44;;;15.01;63.21
14885;BME280;7534;50.762;7.000;2022-09-03T02:00:59;150055.69;;;14.86;63.43
14885;BME280;7534;50.762;7.000;2022-09-03T02:03:37;150063.59;;;14.89;63.60
14885;BME280;7534;50.762;7.000;2022-09-03T02:06:07;150045.19;;;14.82;64.03
14885;BME280;7534;50.762;7.000;2022-09-03T02:08:33;150034.66;;;14.78;64.24
14885;BME280;7534;50.762;7.000;2022-09-03T02:10:59;150039.94;;;14.80;64.46
14885;BME280;7534;50.762;7.000;2022-09-03T02:13:38;150034.66;;;14.78;64.62
14885;BME280;7534;50.762;7.000;2022-09-03T02:16:18;150021.56;;;14.73;64.56
14885;BME280;7534;50.762;7.000;2022-09-03T02:18:50;150045.19;;;14.82;64.78
14885;BME280;7534;50.762;7.000;2022-09-03T02:21:20;150020.22;;;14.73;64.84
14885;BME280;7534;50.762;7.000;2022-09-03T02:23:48;149995.28;;;14.63;64.87
14885;BME280;7534;50.762;7.000;2022-09-03T02:26:20;149997.91;;;14.64;65.22
14885;BME280;7534;50.762;7.000;2022-09-03T02:28:47;150005.81;;;14.67;65.27
14885;BME280;7534;50.762;7.000;2022-09-03T02:31:13;149980.84;;;14.58;65.33
14885;BME280;7534;50.762;7.000;2022-09-03T02:33:41;149990.00;;;14.61;65.26
14885;BME280;7534;50.762;7.000;2022-09-03T02:36:12;149997.91;;;14.64;65.41
14885;BME280;7534;50.762;7.000;2022-09-03T02:38:41;149997.91;;;14.64;65.55
14885;BME280;7534;50.762;7.000;2022-09-03T02:41:07;149967.69;;;14.52;65.70
14885;BME280;7534;50.762;7.000;2022-09-03T02:47:05;149946.69;;;14.44;66.11
14885;BME280;7534;50.762;7.000;2022-09-03T02:49:31;149965.06;;;14.51;66.13
14885;BME280;7534;50.762;7.000;2022-09-03T02:52:05;149959.84;;;14.49;66.26
14885;BME280;7534;50.762;7.000;2022-09-03T02:54:32;149953.25;;;14.47;65.96
14885;BME280;7534;50.762;7.000;2022-09-03T02:57:01;149962.47;;;14.50;66.33
14885;BME280;7534;50.762;7.000;2022-09-03T02:59:27;149942.78;;;14.43;66.29
14885;BME280;7534;50.762;7.000;2022-09-03T03:01:54;149951.94;;;14.46;66.51
14885;BME280;7534;50.762;7.000;2022-09-03T03:04:21;149951.94;;;14.46;66.61
14885;BME280;7534;50.762;7.000;2022-09-03T03:06:48;149936.19;;;14.40;66.85
14885;BME280;7534;50.762;7.000;2022-09-03T03:09:16;149950.63;;;14.46;66.71
14885;BME280;7534;50.762;7.000;2022-09-03T03:11:42;149940.16;;;14.42;66.89
14885;BME280;7534;50.762;7.000;2022-09-03T03:14:08;149934.88;;;14.40;66.54
14885;BME280;7534;50.762;7.000;2022-09-03T03:19:01;149917.75;;;14.33;66.49
14885;BME280;7534;50.762;7.000;2022-09-03T03:21:27;149898.06;;;14.26;66.62
14885;BME280;7534;50.762;7.000;2022-09-03T03:23:53;149908.56;;;14.30;66.88
14885;BME280;7534;50.762;7.000;2022-09-03T03:26:20;149934.88;;;14.40;67.30
14885;BME280;7534;50.762;7.000;2022-09-03T03:28:50;149938.81;;;14.41;67.31
14885;BME280;7534;50.762;7.000;2022-09-03T03:31:21;149937.50;;;14.41;67.11
14885;BME280;7534;50.762;7.000;2022-09-03T03:34:03;149950.63;;;14.46;67.08
14885;BME280;7534;50.762;7.000;2022-09-03T03:36:32;149946.69;;;14.44;66.97
14885;BME280;7534;50.762;7.000;2022-09-03T03:39:00;149976.91;;;14.56;66.76
14885;BME280;7534;50.762;7.000;2022-09-03T03:41:32;149991.31;;;14.62;66.56
14885;BME280;7534;50.762;7.000;2022-09-03T03:44:01;150004.50;;;14.67;66.13
14885;BME280;7534;50.762;7.000;2022-09-03T03:46:39;150000.53;;;14.65;65.89
14885;BME280;7534;50.762;7.000;2022-09-03T03:49:07;150012.34;;;14.70;65.66
14885;BME280;7534;50.762;7.000;2022-09-03T03:51:35;150024.19;;;14.74;65.39
14885;BME280;7534;50.762;7.000;2022-09-03T03:54:01;150057.00;;;14.87;65.17
14885;BME280;7534;50.762;7.000;2022-09-03T03:56:27;150050.41;;;14.84;64.82
14885;BME280;7534;50.762;7.000;2022-09-03T03:58:53;150101.66;;;15.04;64.75
14885;BME280;7534;50.762;7.000;2022-09-03T04:01:22;150108.25;;;15.07;64.62
14885;BME280;7534;50.762;7.000;2022-09-03T04:03:48;150142.41;;;15.20;64.25
14885;BME280;7534;50.762;7.000;2022-09-03T04:06:17;150129.28;;;15.15;64.33
14885;BME280;7534;50.762;7.000;2022-09-03T04:08:46;150143.72;;;15.20;64.67
14885;BME280;7534;50.762;7.000;2022-09-03T04:11:16;150163.41;;;15.28;64.96
14885;BME280;7534;50.762;7.000;2022-09-03T04:13:44;150160.78;;;15.27;64.73
14885;BME280;7534;50.762;7.000;2022-09-03T04:16:15;150168.69;;;15.30;64.58
14885;BME280;7534;50.762;7.000;2022-09-03T04:18:42;150156.84;;;15.25;64.17
14885;BME280;7534;50.762;7.000;2022-09-03T04:21:12;150133.19;;;15.16;64.41
14885;BME280;7534;50.762;7.000;2022-09-03T04:23:42;150167.38;;;15.30;64.77
14885;BME280;7534;50.762;7.000;2022-09-03T04:26:11;150183.13;;;15.36;64.87
14885;BME280;7534;50.762;7.000;2022-09-03T04:28:37;150138.44;;;15.18;64.70
14885;BME280;7534;50.762;7.000;2022-09-03T04:31:07;150167.38;;;15.30;64.90
14885;BME280;7534;50.762;7.000;2022-09-03T04:33:35;150179.16;;;15.34;64.57
14885;BME280;7534;50.762;7.000;2022-09-03T04:36:18;150154.19;;;15.24;64.63
14885;BME280;7534;50.762;7.000;2022-09-03T04:38:47;150173.94;;;15.32;64.38
14885;BME280;7534;50.762;7.000;2022-09-03T04:41:20;150170.00;;;15.31;64.52
14885;BME280;7534;50.762;7.000;2022-09-03T04:43:46;150160.78;;;15.27;64.37
14885;BME280;7534;50.762;7.000;2022-09-03T04:46:14;150181.81;;;15.35;64.50
14885;BME280;7534;50.762;7.000;2022-09-03T04:48:41;150152.94;;;15.24;64.42
14885;BME280;7534;50.762;7.000;2022-09-03T04:51:10;150188.41;;;15.38;64.45
14885;BME280;7534;50.762;7.000;2022-09-03T04:53:41;150202.84;;;15.43;64.48
14885;BME280;7534;50.762;7.000;2022-09-03T04:56:25;150233.13;;;15.55;63.94
14885;BME280;7534;50.762;7.000;2022-09-03T04:59:01;150256.78;;;15.64;64.29
14885;BME280;7534;50.762;7.000;2022-09-03T05:01:31;150268.59;;;15.69;64.05
14885;BME280;7534;50.762;7.000;2022-09-03T05:03:58;150284.38;;;15.75;64.10
14885;BME280;7534;50.762;7.000;2022-09-03T05:06:27;150322.47;;;15.89;63.66
14885;BME280;7534;50.762;7.000;2022-09-03T05:08:54;150346.16;;;15.98;63.13
14885;BME280;7534;50.762;7.000;2022-09-03T05:11:21;150326.44;;;15.91;62.21
14885;BME280;7534;50.762;7.000;2022-09-03T05:13:52;150371.13;;;16.08;60.18
14885;BME280;7534;50.762;7.000;2022-09-03T05:16:19;150356.69;;;16.02;59.46
14885;BME280;7534;50.762;7.000;2022-09-03T05:18:46;150452.66;;;16.39;58.43
14885;BME280;7534;50.762;7.000;2022-09-03T05:21:17;150486.88;;;16.53;57.72
14885;BME280;7534;50.762;7.000;2022-09-03T05:23:46;150503.97;;;16.59;56.78
14885;BME280;7534;50.762;7.000;2022-09-03T05:26:19;150576.34;;;16.87;56.50
14885;BME280;7534;50.762;7.000;2022-09-03T05:28:45;150584.28;;;16.90;55.56
14885;BME280;7534;50.762;7.000;2022-09-03T05:31:16;150605.31;;;16.98;54.94
14885;BME280;7534;50.762;7.000;2022-09-03T05:33:45;150615.88;;;17.02;54.79
14885;BME280;7534;50.762;7.000;2022-09-03T05:36:20;150606.66;;;16.99;54.84
14885;BME280;7534;50.762;7.000;2022-09-03T05:38:51;150655.34;;;17.17;54.22
14885;BME280;7534;50.762;7.000;2022-09-03T05:41:21;150673.75;;;17.25;53.83
14885;BME280;7534;50.762;7.000;2022-09-03T05:43:49;150669.81;;;17.23;53.86
14885;BME280;7534;50.762;7.000;2022-09-03T05:46:29;150732.97;;;17.47;53.47
14885;BME280;7534;50.762;7.000;2022-09-03T05:49:00;150750.09;;;17.54;53.20
14885;BME280;7534;50.762;7.000;2022-09-03T05:51:27;150758.00;;;17.57;53.19
14885;BME280;7534;50.762;7.000;2022-09-03T05:53:53;150759.31;;;17.58;52.79
14885;BME280;7534;50.762;7.000;2022-09-03T05:56:23;150794.91;;;17.71;52.67
14885;BME280;7534;50.762;7.000;2022-09-03T05:58:52;150818.63;;;17.80;52.76
14885;BME280;7534;50.762;7.000;2022-09-03T06:01:24;150867.34;;;17.99;52.08
14885;BME280;7534;50.762;7.000;2022-09-03T06:04:02;150897.59;;;18.11;51.64
14885;BME280;7534;50.762;7.000;2022-09-03T06:06:33;150920.00;;;18.19;51.25
14885;BME280;7534;50.762;7.000;2022-09-03T06:09:06;150960.84;;;18.35;50.55
14885;BME280;7534;50.762;7.000;2022-09-03T06:11:34;150970.06;;;18.39;50.43
14885;BME280;7534;50.762;7.000;2022-09-03T06:14:04;151018.84;;;18.57;50.01
14885;BME280;7534;50.762;7.000;2022-09-03T06:16:31;151072.88;;;18.78;50.04
14885;BME280;7534;50.762;7.000;2022-09-03T06:19:02;151140.09;;;19.04;48.75
14885;BME280;7534;50.762;7.000;2022-09-03T06:21:32;151137.47;;;19.03;48.60
14885;BME280;7534;50.762;7.000;2022-09-03T06:23:57;151103.16;;;18.90;48.89
14885;BME280;7534;50.762;7.000;2022-09-03T06:26:24;151116.38;;;18.95;48.65
14885;BME280;7534;50.762;7.000;2022-09-03T06:28:50;151150.63;;;19.08;48.22
14885;BME280;7534;50.762;7.000;2022-09-03T06:31:22;151183.59;;;19.21;47.91
14885;BME280;7534;50.762;7.000;2022-09-03T06:33:48;151285.16;;;19.60;47.29
14885;BME280;7534;50.762;7.000;2022-09-03T06:36:16;151398.56;;;20.03;46.00
14885;BME280;7534;50.762;7.000;2022-09-03T06:38:45;151501.53;;;20.43;45.95
14885;BME280;7534;50.762;7.000;2022-09-03T06:41:21;151621.63;;;20.89;44.52
14885;BME280;7534;50.762;7.000;2022-09-03T06:43:52;151681.03;;;21.12;43.82
14885;BME280;7534;50.762;7.000;2022-09-03T06:46:22;151778.75;;;21.49;43.04
14885;BME280;7534;50.762;7.000;2022-09-03T06:48:48;151781.41;;;21.50;41.69
14885;BME280;7534;50.762;7.000;2022-09-03T06:51:22;151704.84;;;21.21;41.27
14885;BME280;7534;50.762;7.000;2022-09-03T06:53:51;151719.34;;;21.26;41.13
14885;BME280;7534;50.762;7.000;2022-09-03T06:56:22;151768.22;;;21.45;41.03
14885;BME280;7534;50.762;7.000;2022-09-03T06:58:56;151739.16;;;21.34;40.63
14885;BME280;7534;50.762;7.000;2022-09-03T07:01:28;151776.16;;;21.48;40.80
14885;BME280;7534;50.762;7.000;2022-09-03T07:03:58;151828.97;;;21.68;40.01
14885;BME280;7534;50.762;7.000;2022-09-03T07:06:32;151798.56;;;21.57;40.49
14885;BME280;7534;50.762;7.000;2022-09-03T07:09:02;151784.06;;;21.51;40.30
14885;BME280;7534;50.762;7.000;2022-09-03T07:11:29;151733.91;;;21.32;40.68
14885;BME280;7534;50.762;7.000;2022-09-03T07:13:58;151761.59;;;21.43;40.58
14885;BME280;7534;50.762;7.000;2022-09-03T07:16:32;151702.19;;;21.20;40.63
14885;BME280;7534;50.762;7.000;2022-09-03T07:18:58;151698.22;;;21.18;41.07
14885;BME280;7534;50.762;7.000;2022-09-03T07:21:28;151659.91;;;21.04;41.53
14885;BME280;7534;50.762;7.000;2022-09-03T07:23:56;151613.69;;;20.86;42.09
14885;BME280;7534;50.762;7.000;2022-09-03T07:26:30;151567.47;;;20.68;42.33
14885;BME280;7534;50.762;7.000;2022-09-03T07:28:58;151580.72;;;20.73;42.76
14885;BME280;7534;50.762;7.000;2022-09-03T07:31:32;151600.50;;;20.81;43.13
14885;BME280;7534;50.762;7.000;2022-09-03T07:34:02;151564.88;;;20.67;43.72
14885;BME280;7534;50.762;7.000;2022-09-03T07:36:42;151516.03;;;20.48;44.38
14885;BME280;7534;50.762;7.000;2022-09-03T07:39:12;151518.69;;;20.49;44.77
14885;BME280;7534;50.762;7.000;2022-09-03T07:41:40;151485.69;;;20.37;45.29
14885;BME280;7534;50.762;7.000;2022-09-03T07:44:09;151481.72;;;20.35;45.67
14885;BME280;7534;50.762;7.000;2022-09-03T07:46:37;151502.81;;;20.43;45.90
14885;BME280;7534;50.762;7.000;2022-09-03T07:49:04;151496.25;;;20.41;45.97
14885;BME280;7534;50.762;7.000;2022-09-03T07:51:36;151498.91;;;20.42;46.21
14885;BME280;7534;50.762;7.000;2022-09-03T07:54:08;151427.59;;;20.14;46.92
14885;BME280;7534;50.762;7.000;2022-09-03T07:56:36;151365.59;;;19.91;48.27
14885;BME280;7534;50.762;7.000;2022-09-03T07:59:03;151306.25;;;19.68;50.06
14885;BME280;7534;50.762;7.000;2022-09-03T08:01:31;151359.00;;;19.88;51.79
14885;BME280;7534;50.762;7.000;2022-09-03T08:03:57;151335.25;;;19.79;55.29
14885;BME280;7534;50.762;7.000;2022-09-03T08:06:27;151232.34;;;19.39;57.84
14885;BME280;7534;50.762;7.000;2022-09-03T08:08:58;151076.84;;;18.80;59.42
14885;BME280;7534;50.762;7.000;2022-09-03T08:11:25;150974.03;;;18.40;63.79
14885;BME280;7534;50.762;7.000;2022-09-03T08:14:01;150872.56;;;18.01;66.61
14885;BME280;7534;50.762;7.000;2022-09-03T08:16:40;150797.53;;;17.72;67.71
14885;BME280;7534;50.762;7.000;2022-09-03T08:19:06;150758.00;;;17.57;67.55
14885;BME280;7534;50.762;7.000;2022-09-03T08:21:33;150729.03;;;17.46;67.64
14885;BME280;7534;50.762;7.000;2022-09-03T08:24:00;150752.72;;;17.55;68.95
14885;BME280;7534;50.762;7.000;2022-09-03T08:26:53;150659.25;;;17.19;69.15
14885;BME280;7534;50.762;7.000;2022-09-03T08:29:28;150607.97;;;16.99;67.92
14885;BME280;7534;50.762;7.000;2022-09-03T08:31:53;150730.34;;;17.46;68.69
14885;BME280;7534;50.762;7.000;2022-09-03T08:34:22;150707.97;;;17.38;67.96
14885;BME280;7534;50.762;7.000;2022-09-03T08:36:57;150818.63;;;17.80;67.62
14885;BME280;7534;50.762;7.000;2022-09-03T08:44:13;150871.25;;;18.01;69.45
14885;BME280;7534;50.762;7.000;2022-09-03T09:12:32;151506.78;;;20.45;54.95
14885;BME280;7534;50.762;7.000;2022-09-03T09:21:39;151568.81;;;20.69;53.81
14885;BME280;7534;50.762;7.000;2022-09-03T09:24:53;151638.78;;;20.95;52.08
14885;BME280;7534;50.762;7.000;2022-09-03T09:30:24;151991.47;;;22.31;46.79
14885;BME280;7534;50.762;7.000;2022-09-03T09:33:01;152421.31;;;23.95;43.48
14885;BME280;7534;50.762;7.000;2022-09-03T09:35:38;152741.75;;;25.18;40.63
14885;BME280;7534;50.762;7.000;2022-09-03T09:38:41;153039.91;;;26.32;37.90
14885;BME280;7534;50.762;7.000;2022-09-03T09:41:23;153252.06;;;27.13;36.49
14885;BME280;7534;50.762;7.000;2022-09-03T09:44:18;153371.47;;;27.59;35.16
14885;BME280;7534;50.762;7.000;2022-09-03T09:46:46;153599.75;;;28.46;33.78
14885;BME280;7534;50.762;7.000;2022-09-03T09:52:26;153309.09;;;27.35;34.38
14885;BME280;7534;50.762;7.000;2022-09-03T09:55:26;153433.81;;;27.83;34.22
14885;BME280;7534;50.762;7.000;2022-09-03T09:58:48;153433.81;;;27.83;34.10
14885;BME280;7534;50.762;7.000;2022-09-03T10:02:10;153346.22;;;27.49;33.91
14885;BME280;7534;50.762;7.000;2022-09-03T10:04:38;153352.84;;;27.52;34.83
14885;BME280;7534;50.762;7.000;2022-09-03T10:07:59;153115.44;;;26.61;35.65
14885;BME280;7534;50.762;7.000;2022-09-03T10:10:41;153183.06;;;26.87;35.09
14885;BME280;7534;50.762;7.000;2022-09-03T10:13:38;153368.81;;;27.58;34.95
14885;BME280;7534;50.762;7.000;2022-09-03T10:16:31;153249.41;;;27.12;35.14
14885;BME280;7534;50.762;7.000;2022-09-03T10:23:21;153169.81;;;26.82;36.33
14885;BME280;7534;50.762;7.000;2022-09-03T10:28:41;153253.41;;;27.14;35.54
14885;BME280;7534;50.762;7.000;2022-09-03T10:36:45;153092.91;;;26.52;36.58
14885;BME280;7534;50.762;7.000;2022-09-03T10:40:10;152969.63;;;26.05;37.73
14885;BME280;7534;50.762;7.000;2022-09-03T10:43:12;152859.63;;;25.63;38.75
14885;BME280;7534;50.762;7.000;2022-09-03T10:49:02;152719.22;;;25.09;40.21
14885;BME280;7534;50.762;7.000;2022-09-03T10:52:02;152678.19;;;24.94;40.62
14885;BME280;7534;50.762;7.000;2022-09-03T10:59:31;152835.75;;;25.54;40.10
14885;BME280;7534;50.762;7.000;2022-09-03T11:02:31;152866.28;;;25.66;39.78
14885;BME280;7534;50.762;7.000;2022-09-03T11:05:41;152903.34;;;25.80;40.00
14885;BME280;7534;50.762;7.000;2022-09-03T11:08:26;152839.72;;;25.56;40.28
14885;BME280;7534;50.762;7.000;2022-09-03T11:11:01;152829.16;;;25.52;40.49
14885;BME280;7534;50.762;7.000;2022-09-03T11:13:59;152838.41;;;25.55;40.74
14885;BME280;7534;50.762;7.000;2022-09-03T11:16:34;152794.69;;;25.38;41.03
14885;BME280;7534;50.762;7.000;2022-09-03T11:19:08;152940.50;;;25.94;40.07
14885;BME280;7534;50.762;7.000;2022-09-03T11:21:37;153027.97;;;26.28;39.58
14885;BME280;7534;50.762;7.000;2022-09-03T11:24:14;153151.28;;;26.75;38.68
14885;BME280;7534;50.762;7.000;2022-09-03T11:27:19;153189.72;;;26.89;38.42
14885;BME280;7534;50.762;7.000;2022-09-03T11:30:07;153139.31;;;26.70;38.67
14885;BME280;7534;50.762;7.000;2022-09-03T11:32:53;153157.88;;;26.77;38.81
14885;BME280;7534;50.762;7.000;2022-09-03T11:38:19;153134.00;;;26.68;39.21
14885;BME280;7534;50.762;7.000;2022-09-03T11:41:13;153061.13;;;26.40;39.56
14885;BME280;7534;50.762;7.000;2022-09-03T11:43:45;152990.81;;;26.13;40.27
14885;BME280;7534;50.762;7.000;2022-09-03T11:49:08;152895.44;;;25.77;40.71
14885;BME280;7534;50.762;7.000;2022-09-03T11:51:39;152890.13;;;25.75;41.17
14885;BME280;7534;50.762;7.000;2022-09-03T11:56:39;152927.22;;;25.89;40.92
14885;BME280;7534;50.762;7.000;2022-09-03T11:59:26;153033.28;;;26.30;40.29
14885;BME280;7534;50.762;7.000;2022-09-03T12:02:26;153088.97;;;26.51;39.93
14885;BME280;7534;50.762;7.000;2022-09-03T12:05:25;153070.38;;;26.44;39.95
14885;BME280;7534;50.762;7.000;2022-09-03T12:11:31;153027.97;;;26.28;40.76
14885;BME280;7534;50.762;7.000;2022-09-03T12:14:30;153100.88;;;26.55;40.44
14885;BME280;7534;50.762;7.000;2022-09-03T12:18:05;153171.16;;;26.82;40.40
14885;BME280;7534;50.762;7.000;2022-09-03T12:20:43;153241.44;;;27.09;39.89
14885;BME280;7534;50.762;7.000;2022-09-03T12:23:24;153248.09;;;27.12;39.83
14885;BME280;7534;50.762;7.000;2022-09-03T12:25:51;153343.59;;;27.48;39.47
14885;BME280;7534;50.762;7.000;2022-09-03T12:28:21;153346.22;;;27.49;39.46
14885;BME280;7534;50.762;7.000;2022-09-03T12:30:49;153358.22;;;27.54;38.89
14885;BME280;7534;50.762;7.000;2022-09-03T12:33:20;153340.94;;;27.47;38.70
14885;BME280;7534;50.762;7.000;2022-09-03T12:36:00;153313.06;;;27.37;39.21
14885;BME280;7534;50.762;7.000;2022-09-03T12:38:28;153390.03;;;27.66;39.06
14885;BME280;7534;50.762;7.000;2022-09-03T12:40:57;153315.72;;;27.38;39.47
14885;BME280;7534;50.762;7.000;2022-09-03T12:43:31;153248.09;;;27.12;40.15
14885;BME280;7534;50.762;7.000;2022-09-03T12:45:56;153207.00;;;26.96;40.80
14885;BME280;7534;50.762;7.000;2022-09-03T12:48:26;153256.06;;;27.15;40.41
14885;BME280;7534;50.762;7.000;2022-09-03T12:51:02;153289.19;;;27.27;40.11
14885;BME280;7534;50.762;7.000;2022-09-03T12:53:30;153360.88;;;27.55;39.81
14885;BME280;7534;50.762;7.000;2022-09-03T12:56:00;153380.78;;;27.62;39.62
14885;BME280;7534;50.762;7.000;2022-09-03T12:58:38;153338.28;;;27.46;39.88
14885;BME280;7534;50.762;7.000;2022-09-03T13:01:15;153429.84;;;27.81;39.45
14885;BME280;7534;50.762;7.000;2022-09-03T13:04:10;153476.28;;;27.99;38.79
14885;BME280;7534;50.762;7.000;2022-09-03T13:07:06;153545.34;;;28.25;38.32
14885;BME280;7534;50.762;7.000;2022-09-03T13:09:39;153613.06;;;28.51;37.97
14885;BME280;7534;50.762;7.000;2022-09-03T13:12:19;153675.44;;;28.75;37.35
14885;BME280;7534;50.762;7.000;2022-09-03T13:14:49;153614.38;;;28.52;37.73
14885;BME280;7534;50.762;7.000;2022-09-03T13:17:31;153566.59;;;28.33;37.75
14885;BME280;7534;50.762;7.000;2022-09-03T13:20:53;153603.75;;;28.47;38.00
14885;BME280;7534;50.762;7.000;2022-09-03T13:24:19;153663.47;;;28.70;37.60
14885;BME280;7534;50.762;7.000;2022-09-03T13:27:11;153646.22;;;28.64;37.49
14885;BME280;7534;50.762;7.000;2022-09-03T13:30:13;153619.72;;;28.54;37.76
14885;BME280;7534;50.762;7.000;2022-09-03T13:35:58;153728.56;;;28.95;37.32
14885;BME280;7534;50.762;7.000;2022-09-03T13:38:41;153729.91;;;28.96;37.10
14885;BME280;7534;50.762;7.000;2022-09-03T13:41:45;153654.19;;;28.67;37.49
14885;BME280;7534;50.762;7.000;2022-09-03T13:47:24;153717.97;;;28.91;36.96
14885;BME280;7534;50.762;7.000;2022-09-03T13:50:18;153773.72;;;29.12;36.47
14885;BME280;7534;50.762;7.000;2022-09-03T13:52:55;153824.22;;;29.32;36.20
14885;BME280;7534;50.762;7.000;2022-09-03T13:58:29;153805.63;;;29.25;36.22
14885;BME280;7534;50.762;7.000;2022-09-03T14:03:42;153662.19;;;28.70;37.27
14885;BME280;7534;50.762;7.000;2022-09-03T14:06:59;153598.47;;;28.45;37.64
14885;BME280;7534;50.762;7.000;2022-09-03T14:09:47;153628.97;;;28.57;37.53
14885;BME280;7534;50.762;7.000;2022-09-03T14:12:28;153710.00;;;28.88;37.14
14885;BME280;7534;50.762;7.000;2022-09-03T14:15:08;153757.81;;;29.06;36.69
14885;BME280;7534;50.762;7.000;2022-09-03T14:18:01;153760.47;;;29.07;36.64
14885;BME280;7534;50.762;7.000;2022-09-03T14:20:46;153776.38;;;29.13;36.35
14885;BME280;7534;50.762;7.000;2022-09-03T14:23:44;153775.06;;;29.13;36.73
14885;BME280;7534;50.762;7.000;2022-09-03T14:26:23;153809.63;;;29.26;36.44
14885;BME280;7534;50.762;7.000;2022-09-03T14:29:07;153848.19;;;29.41;35.78
14885;BME280;7534;50.762;7.000;2022-09-03T14:32:17;153911.94;;;29.65;35.64
14885;BME280;7534;50.762;7.000;2022-09-03T14:37:49;154127.25;;;30.47;34.13
14885;BME280;7534;50.762;7.000;2022-09-03T14:40:45;154051.47;;;30.18;34.43
14885;BME280;7534;50.762;7.000;2022-09-03T14:49:39;153991.69;;;29.95;34.63
14885;BME280;7534;50.762;7.000;2022-09-03T14:52:41;153990.34;;;29.95;34.46
14885;BME280;7534;50.762;7.000;2022-09-03T14:55:48;153989.03;;;29.94;35.05
14885;BME280;7534;50.762;7.000;2022-09-03T14:59:01;153930.53;;;29.72;35.45
14885;BME280;7534;50.762;7.000;2022-09-03T15:01:35;153931.84;;;29.73;35.84
14885;BME280;7534;50.762;7.000;2022-09-03T15:04:23;153792.31;;;29.19;36.84
14885;BME280;7534;50.762;7.000;2022-09-03T15:12:39;153725.97;;;28.94;37.43
14885;BME280;7534;50.762;7.000;2022-09-03T15:18:51;153680.81;;;28.77;37.46
14885;BME280;7534;50.762;7.000;2022-09-03T15:20:51;153648.88;;;28.65;37.79
14885;BME280;7534;50.762;7.000;2022-09-03T15:24:01;153680.81;;;28.77;37.86
14885;BME280;7534;50.762;7.000;2022-09-03T15:30:10;153601.06;;;28.46;38.48
14885;BME280;7534;50.762;7.000;2022-09-03T15:32:56;153546.69;;;28.26;38.57
14885;BME280;7534;50.762;7.000;2022-09-03T15:35:38;153561.25;;;28.31;38.71
14885;BME280;7534;50.762;7.000;2022-09-03T15:43:34;153570.56;;;28.35;40.16
14885;BME280;7534;50.762;7.000;2022-09-03T15:46:09;153449.78;;;27.89;42.97
14885;BME280;7534;50.762;7.000;2022-09-03T15:52:05;153278.63;;;27.23;45.27
14885;BME280;7534;50.762;7.000;2022-09-03T15:54:51;153237.50;;;27.08;46.16
14885;BME280;7534;50.762;7.000;2022-09-03T16:00:19;153061.13;;;26.40;48.62
14885;BME280;7534;50.762;7.000;2022-09-03T16:03:09;153019.97;;;26.25;49.38
14885;BME280;7534;50.762;7.000;2022-09-03T16:05:54;153025.34;;;26.27;49.08
14885;BME280;7534;50.762;7.000;2022-09-03T16:08:27;153014.69;;;26.22;49.35
14885;BME280;7534;50.762;7.000;2022-09-03T16:11:05;153051.81;;;26.37;49.69
14885;BME280;7534;50.762;7.000;2022-09-03T16:19:51;152831.81;;;25.53;50.88
14885;BME280;7534;50.762;7.000;2022-09-03T16:22:30;152858.31;;;25.63;51.32
14885;BME280;7534;50.762;7.000;2022-09-03T16:25:03;152919.28;;;25.86;51.09
14885;BME280;7534;50.762;7.000;2022-09-03T16:27:55;152957.72;;;26.01;49.43
14885;BME280;7534;50.762;7.000;2022-09-03T16:33:32;153104.88;;;26.57;47.79
14885;BME280;7534;50.762;7.000;2022-09-03T16:40:20;152997.47;;;26.16;48.56
14885;BME280;7534;50.762;7.000;2022-09-03T17:09:21;152627.78;;;24.75;57.04
14885;BME280;7534;50.762;7.000;2022-09-03T17:19:34;152360.47;;;23.72;62.51